createdAt,value
2022-12-08T00:01:41.367Z,0.80
2022-12-08T00:04:12.046Z,0.80
2022-12-08T00:07:02.615Z,0.80
2022-12-08T00:09:39.672Z,0.80
2022-12-08T00:12:09.944Z,0.70
2022-12-08T00:14:48.051Z,0.70
2022-12-08T00:17:17.700Z,0.70
2022-12-08T00:19:45.452Z,0.70
2022-12-08T00:22:15.230Z,0.70
2022-12-08T00:24:47.403Z,0.70
2022-12-08T00:27:16.691Z,0.70
2022-12-08T00:29:45.480Z,0.60
2022-12-08T00:32:15.844Z,0.60
2022-12-08T00:34:43.442Z,0.60
2022-12-08T00:37:10.989Z,0.60
2022-12-08T00:39:38.570Z,0.60
2022-12-08T00:42:13.069Z,0.60
2022-12-08T00:44:44.472Z,0.60
2022-12-08T00:47:13.709Z,0.60
2022-12-08T00:49:41.718Z,0.50
2022-12-08T00:52:10.238Z,0.50
2022-12-08T00:54:38.006Z,0.50
2022-12-08T00:57:08.322Z,0.60
2022-12-08T00:59:35.999Z,0.60
2022-12-08T01:02:04.494Z,0.60
2022-12-08T01:04:32.236Z,0.60
2022-12-08T01:07:05.344Z,0.60
2022-12-08T01:09:35.844Z,0.60
2022-12-08T01:12:03.653Z,0.60
2022-12-08T01:14:33.448Z,0.60
2022-12-08T01:17:01.219Z,0.60
2022-12-08T01:19:29.131Z,0.60
2022-12-08T01:21:56.652Z,0.50
2022-12-08T01:24:24.337Z,0.50
2022-12-08T01:26:52.287Z,0.50
2022-12-08T01:29:20.179Z,0.50
2022-12-08T01:31:47.666Z,0.40
2022-12-08T01:34:15.764Z,0.40
2022-12-08T01:36:45.028Z,0.30
2022-12-08T01:39:17.519Z,0.30
2022-12-08T01:41:46.822Z,0.30
2022-12-08T01:44:14.016Z,0.30
2022-12-08T01:46:43.946Z,0.30
2022-12-08T01:49:28.451Z,0.30
2022-12-08T01:52:20.245Z,0.30
2022-12-08T01:54:56.300Z,0.30
2022-12-08T01:57:41.887Z,0.40
2022-12-08T02:00:12.546Z,0.50
2022-12-08T02:02:58.204Z,0.50
2022-12-08T02:05:33.656Z,0.50
2022-12-08T02:08:04.975Z,0.50
2022-12-08T02:10:37.915Z,0.50
2022-12-08T02:13:08.329Z,0.50
2022-12-08T02:15:47.707Z,0.40
2022-12-08T02:18:25.252Z,0.30
2022-12-08T02:21:12.181Z,0.30
2022-12-08T02:23:59.594Z,0.30
2022-12-08T02:26:55.807Z,0.20
2022-12-08T02:29:35.022Z,0.10
2022-12-08T02:32:48.253Z,0.10
2022-12-08T02:35:27.854Z,0.10
2022-12-08T02:38:27.120Z,0.10
2022-12-08T02:41:01.059Z,0.10
2022-12-08T02:43:47.602Z,0.10
2022-12-08T02:46:24.114Z,0.20
2022-12-08T02:48:52.876Z,0.20
2022-12-08T02:51:20.556Z,0.20
2022-12-08T02:53:48.866Z,0.20
2022-12-08T02:56:46.987Z,0.30
2022-12-08T02:59:30.912Z,0.20
2022-12-08T03:02:27.246Z,0.20
2022-12-08T03:05:06.863Z,0.20
2022-12-08T03:07:43.976Z,0.20
2022-12-08T03:10:23.826Z,0.20
2022-12-08T03:13:01.465Z,0.30
2022-12-08T03:15:31.219Z,0.30
2022-12-08T03:18:01.117Z,0.30
2022-12-08T03:20:30.072Z,0.30
2022-12-08T03:23:00.156Z,0.30
2022-12-08T03:25:32.142Z,0.30
2022-12-08T03:28:00.434Z,0.30
2022-12-08T03:30:32.455Z,0.30
2022-12-08T03:33:27.090Z,0.20
2022-12-08T03:35:55.827Z,0.10
2022-12-08T03:38:23.314Z,0.10
2022-12-08T03:41:10.502Z,0.10
2022-12-08T03:43:37.886Z,0.00
2022-12-08T03:46:05.127Z,0.00
2022-12-08T03:48:32.456Z,-0.10
2022-12-08T03:50:59.622Z,-0.10
2022-12-08T03:53:26.875Z,-0.10
2022-12-08T03:55:54.813Z,-0.10
2022-12-08T03:58:21.992Z,0.00
2022-12-08T04:00:49.126Z,0.00
2022-12-08T04:03:16.325Z,0.00
2022-12-08T04:05:43.492Z,0.00
2022-12-08T04:08:10.711Z,0.00
2022-12-08T04:10:37.959Z,-0.10
2022-12-08T04:13:05.126Z,-0.10
2022-12-08T04:15:32.373Z,-0.10
2022-12-08T04:17:59.567Z,0.00
2022-12-08T04:20:26.696Z,0.00
2022-12-08T04:22:53.921Z,0.10
2022-12-08T04:25:21.274Z,0.10
2022-12-08T04:27:48.607Z,0.10
2022-12-08T04:30:15.775Z,0.30
2022-12-08T04:32:47.342Z,0.20
2022-12-08T04:35:14.814Z,0.30
2022-12-08T04:37:43.453Z,0.30
2022-12-08T04:40:11.930Z,0.40
2022-12-08T04:42:39.360Z,0.40
2022-12-08T04:45:07.166Z,0.40
2022-12-08T04:47:34.453Z,0.50
2022-12-08T04:50:02.062Z,0.50
2022-12-08T04:52:29.497Z,0.50
2022-12-08T04:54:56.532Z,0.50
2022-12-08T04:57:23.973Z,0.50
2022-12-08T04:59:51.059Z,0.50
2022-12-08T05:02:18.436Z,0.50
2022-12-08T05:04:45.622Z,0.50
2022-12-08T05:07:12.922Z,0.50
2022-12-08T05:09:40.018Z,0.50
2022-12-08T05:12:07.354Z,0.50
2022-12-08T05:14:34.782Z,0.60
2022-12-08T05:17:07.796Z,0.60
2022-12-08T05:19:36.696Z,0.60
2022-12-08T05:22:04.001Z,0.60
2022-12-08T05:24:31.161Z,0.60
2022-12-08T05:26:58.264Z,0.60
2022-12-08T05:29:25.539Z,0.60
2022-12-08T05:31:52.766Z,0.60
2022-12-08T05:34:23.064Z,0.60
2022-12-08T05:36:50.149Z,0.60
2022-12-08T05:39:17.251Z,0.60
2022-12-08T05:41:44.778Z,0.60
2022-12-08T05:44:12.001Z,0.50
2022-12-08T05:46:39.193Z,0.60
2022-12-08T05:49:06.418Z,0.50
2022-12-08T05:51:33.678Z,0.60
2022-12-08T05:54:00.842Z,0.60
2022-12-08T05:56:27.956Z,0.60
2022-12-08T05:58:55.215Z,0.60
2022-12-08T06:01:28.136Z,0.70
2022-12-08T06:03:57.173Z,0.70
2022-12-08T06:06:25.671Z,0.70
2022-12-08T06:08:53.289Z,0.60
2022-12-08T06:11:29.295Z,0.70
2022-12-08T06:13:57.277Z,0.70
2022-12-08T06:16:26.414Z,0.70
2022-12-08T06:18:54.375Z,0.60
2022-12-08T06:21:21.709Z,0.60
2022-12-08T06:23:50.641Z,0.50
2022-12-08T06:26:18.323Z,0.50
2022-12-08T06:28:45.623Z,0.40
2022-12-08T06:31:18.259Z,0.30
2022-12-08T06:33:45.762Z,0.30
2022-12-08T06:36:14.581Z,0.40
2022-12-08T06:38:43.636Z,0.30
2022-12-08T06:41:12.504Z,0.30
2022-12-08T06:43:40.999Z,0.30
2022-12-08T06:46:11.116Z,0.30
2022-12-08T06:48:38.809Z,0.30
2022-12-08T06:51:10.788Z,0.30
2022-12-08T06:53:38.915Z,0.30
2022-12-08T06:56:06.672Z,0.30
2022-12-08T06:58:33.944Z,0.30
2022-12-08T07:01:13.650Z,0.30
2022-12-08T07:03:43.570Z,0.30
2022-12-08T07:06:16.201Z,0.40
2022-12-08T07:08:43.135Z,0.40
2022-12-08T07:11:15.298Z,0.40
2022-12-08T07:13:45.279Z,0.40
2022-12-08T07:16:13.255Z,0.40
2022-12-08T07:18:43.080Z,0.50
2022-12-08T07:21:13.358Z,0.50
2022-12-08T07:23:40.759Z,0.50
2022-12-08T07:26:10.646Z,0.60
2022-12-08T07:28:39.378Z,0.60
2022-12-08T07:31:08.948Z,0.60
2022-12-08T07:33:36.281Z,0.60
2022-12-08T07:36:05.405Z,0.60
2022-12-08T07:38:32.439Z,0.60
2022-12-08T07:41:00.094Z,0.60
2022-12-08T07:43:27.192Z,0.60
2022-12-08T07:45:54.955Z,0.60
2022-12-08T07:48:22.178Z,0.60
2022-12-08T07:50:49.559Z,0.60
2022-12-08T07:53:17.101Z,0.60
2022-12-08T07:55:44.796Z,0.60
2022-12-08T07:58:12.240Z,0.70
2022-12-08T08:00:39.467Z,0.70
2022-12-08T08:03:09.211Z,0.70
2022-12-08T08:05:39.159Z,0.80
2022-12-08T08:08:06.517Z,0.80
2022-12-08T08:10:33.593Z,0.80
2022-12-08T08:13:00.998Z,0.90
2022-12-08T08:15:28.429Z,0.90
2022-12-08T08:17:56.134Z,1.00
2022-12-08T08:20:23.419Z,1.00
2022-12-08T08:22:51.547Z,1.00
2022-12-08T08:25:23.967Z,1.10
2022-12-08T08:27:51.741Z,1.10
2022-12-08T08:30:20.921Z,1.20
2022-12-08T08:32:50.014Z,1.10
2022-12-08T08:35:17.176Z,1.20
2022-12-08T08:37:48.855Z,1.20
2022-12-08T08:40:17.742Z,1.30
2022-12-08T08:42:45.151Z,1.40
2022-12-08T08:45:12.168Z,1.40
2022-12-08T08:47:39.415Z,1.40
2022-12-08T08:50:08.037Z,1.50
2022-12-08T08:52:35.493Z,1.60
2022-12-08T08:55:03.137Z,1.60
2022-12-08T08:57:30.517Z,1.70
2022-12-08T08:59:57.630Z,1.70
2022-12-08T09:02:25.552Z,1.80
2022-12-08T09:04:52.979Z,1.90
2022-12-08T09:07:20.149Z,1.90
2022-12-08T09:09:47.310Z,1.90
2022-12-08T09:12:14.476Z,1.90
2022-12-08T09:14:41.611Z,1.90
2022-12-08T09:17:09.356Z,1.90
2022-12-08T09:19:36.625Z,1.90
2022-12-08T09:22:03.960Z,1.90
2022-12-08T09:24:31.076Z,1.90
2022-12-08T09:26:58.262Z,2.10
2022-12-08T09:29:28.681Z,2.20
2022-12-08T09:31:58.442Z,2.30
2022-12-08T09:34:25.549Z,2.30
2022-12-08T09:36:52.715Z,2.30
2022-12-08T09:39:19.830Z,2.40
2022-12-08T09:41:51.044Z,2.50
2022-12-08T09:44:32.942Z,2.60
2022-12-08T09:47:01.917Z,2.70
2022-12-08T09:49:41.942Z,2.90
2022-12-08T09:52:21.837Z,3.00
2022-12-08T09:54:48.933Z,3.10
2022-12-08T09:57:19.641Z,3.30
2022-12-08T09:59:53.064Z,3.50
2022-12-08T10:02:30.727Z,3.60
2022-12-08T10:04:59.250Z,3.70
2022-12-08T10:07:48.405Z,3.80
2022-12-08T10:10:47.565Z,3.90
2022-12-08T10:13:27.571Z,3.90
2022-12-08T10:16:04.080Z,4.00
2022-12-08T10:18:34.189Z,3.90
2022-12-08T10:21:17.493Z,4.00
2022-12-08T10:23:51.559Z,3.90
2022-12-08T10:26:21.765Z,3.90
2022-12-08T10:28:49.560Z,4.00
2022-12-08T10:31:24.749Z,4.10
2022-12-08T10:34:13.480Z,4.20
2022-12-08T10:36:56.433Z,4.20
2022-12-08T10:39:30.686Z,4.20
2022-12-08T10:42:13.825Z,4.10
2022-12-08T10:45:04.264Z,3.90
2022-12-08T10:47:37.323Z,3.80
2022-12-08T10:50:07.792Z,3.70
2022-12-08T10:52:39.977Z,3.70
2022-12-08T10:55:15.681Z,3.70
2022-12-08T10:57:42.751Z,3.80
2022-12-08T11:00:27.113Z,3.70
2022-12-08T11:03:03.502Z,3.60
2022-12-08T11:05:35.722Z,3.60
2022-12-08T11:08:05.150Z,3.60
2022-12-08T11:10:43.094Z,3.50
2022-12-08T11:13:26.697Z,3.40
2022-12-08T11:15:55.819Z,3.40
2022-12-08T11:18:28.278Z,3.30
2022-12-08T11:21:07.981Z,3.30
2022-12-08T11:23:37.801Z,3.30
2022-12-08T11:26:15.189Z,3.30
2022-12-08T11:28:42.338Z,3.40
2022-12-08T11:31:40.489Z,3.30
2022-12-08T11:34:15.188Z,3.20
2022-12-08T11:36:42.393Z,3.20
2022-12-08T11:39:12.934Z,3.20
2022-12-08T11:41:44.304Z,3.20
2022-12-08T11:44:26.957Z,3.20
2022-12-08T11:47:02.988Z,3.10
2022-12-08T11:49:42.069Z,3.20
2022-12-08T11:52:27.977Z,3.20
2022-12-08T11:55:19.265Z,3.20
2022-12-08T11:57:46.371Z,3.20
2022-12-08T12:00:17.531Z,3.10
2022-12-08T12:02:50.818Z,3.10
2022-12-08T12:05:39.813Z,3.10
2022-12-08T12:08:51.226Z,3.10
2022-12-08T12:11:41.224Z,3.20
2022-12-08T12:14:33.560Z,3.10
2022-12-08T12:17:06.279Z,3.10
2022-12-08T12:19:39.392Z,3.20
2022-12-08T12:22:16.300Z,3.20
2022-12-08T12:24:46.210Z,3.10
2022-12-08T12:27:57.290Z,3.20
2022-12-08T12:30:27.616Z,3.20
2022-12-08T12:32:59.355Z,3.20
2022-12-08T12:35:41.875Z,3.20
2022-12-08T12:38:43.359Z,3.20
2022-12-08T12:41:13.385Z,3.20
2022-12-08T12:43:40.482Z,3.20
2022-12-08T12:46:25.865Z,3.10
2022-12-08T12:48:53.073Z,3.10
2022-12-08T12:51:45.698Z,3.10
2022-12-08T12:54:24.671Z,3.10
2022-12-08T12:57:20.848Z,3.20
2022-12-08T13:00:07.442Z,3.20
2022-12-08T13:02:45.128Z,3.20
2022-12-08T13:05:21.441Z,3.20
2022-12-08T13:08:02.679Z,3.20
2022-12-08T13:10:34.658Z,3.20
2022-12-08T13:13:07.565Z,3.20
2022-12-08T13:15:43.261Z,3.30
2022-12-08T13:18:29.810Z,3.30
2022-12-08T13:21:06.020Z,3.40
2022-12-08T13:23:39.031Z,3.40
2022-12-08T13:26:14.921Z,3.50
2022-12-08T13:29:04.307Z,3.50
2022-12-08T13:31:46.798Z,3.50
2022-12-08T13:34:24.500Z,3.50
2022-12-08T13:37:10.837Z,3.50
2022-12-08T13:39:40.846Z,3.40
2022-12-08T13:42:50.157Z,3.40
2022-12-08T13:46:12.200Z,3.40
2022-12-08T13:48:56.215Z,3.40
2022-12-08T13:53:22.466Z,3.40
2022-12-08T13:55:49.789Z,3.40
2022-12-08T13:57:33.507Z,3.30
2022-12-08T14:00:03.878Z,3.30
2022-12-08T14:02:42.252Z,3.30
2022-12-08T14:05:19.552Z,3.30
2022-12-08T14:07:56.307Z,3.30
2022-12-08T14:10:28.444Z,3.20
2022-12-08T14:13:02.988Z,3.20
2022-12-08T14:15:37.884Z,3.20
2022-12-08T14:18:07.244Z,3.40
2022-12-08T14:20:57.879Z,3.50
2022-12-08T14:23:24.208Z,3.50
2022-12-08T14:25:51.166Z,3.50
2022-12-08T14:28:18.444Z,3.40
2022-12-08T14:30:45.482Z,3.30
2022-12-08T14:33:19.240Z,3.30
2022-12-08T14:35:55.698Z,3.20
2022-12-08T14:38:25.839Z,3.20
2022-12-08T14:41:07.476Z,3.10
2022-12-08T14:43:35.061Z,3.00
2022-12-08T14:46:22.955Z,3.00
2022-12-08T14:48:50.082Z,3.00
2022-12-08T14:51:20.422Z,2.90
2022-12-08T14:53:54.703Z,2.90
2022-12-08T14:56:37.013Z,2.80
2022-12-08T14:59:19.136Z,2.80
2022-12-08T15:01:48.049Z,2.80
2022-12-08T15:04:17.981Z,2.80
2022-12-08T15:07:06.307Z,2.70
2022-12-08T15:09:38.342Z,2.70
2022-12-08T15:12:29.767Z,2.60
2022-12-08T15:14:58.145Z,2.60
2022-12-08T15:17:40.095Z,2.60
2022-12-08T15:20:30.196Z,2.50
2022-12-08T15:23:02.036Z,2.40
2022-12-08T15:25:29.267Z,2.30
2022-12-08T15:27:58.890Z,2.20
2022-12-08T15:30:26.676Z,2.10
2022-12-08T15:32:56.012Z,2.00
2022-12-08T15:35:23.017Z,1.90
2022-12-08T15:37:50.020Z,1.90
2022-12-08T15:40:23.030Z,1.80
2022-12-08T15:42:50.064Z,1.80
2022-12-08T15:45:17.746Z,1.80
2022-12-08T15:47:45.998Z,1.70
2022-12-08T15:50:21.355Z,1.70
2022-12-08T15:52:49.462Z,1.80
2022-12-08T15:55:21.378Z,1.80
2022-12-08T15:58:51.234Z,1.80
2022-12-08T16:00:52.607Z,1.70
2022-12-08T16:09:18.348Z,1.60
2022-12-08T16:12:07.224Z,1.70
2022-12-08T16:17:23.017Z,1.70
2022-12-08T16:19:50.066Z,1.70
2022-12-08T16:25:20.332Z,1.70
2022-12-08T16:28:01.179Z,1.60
2022-12-08T16:30:28.683Z,1.60
2022-12-08T16:32:55.630Z,1.60
2022-12-08T16:35:22.714Z,1.50
2022-12-08T16:37:49.675Z,1.50
2022-12-08T16:40:16.744Z,1.50
2022-12-08T16:42:44.129Z,1.50
2022-12-08T16:45:30.507Z,1.50
2022-12-08T16:48:00.303Z,1.50
2022-12-08T16:50:32.259Z,1.50
2022-12-08T16:53:05.523Z,1.50
2022-12-08T16:55:33.376Z,1.50
2022-12-08T16:58:00.519Z,1.50
2022-12-08T17:00:29.307Z,1.50
2022-12-08T17:02:56.863Z,1.50
2022-12-08T17:05:25.537Z,1.50
2022-12-08T17:07:53.484Z,1.50
2022-12-08T17:10:23.291Z,1.40
2022-12-08T17:12:50.953Z,1.40
2022-12-08T17:15:20.872Z,1.30
2022-12-08T17:17:49.497Z,1.30
2022-12-08T17:20:19.450Z,1.40
2022-12-08T17:22:47.646Z,1.30
2022-12-08T17:25:15.047Z,1.30
2022-12-08T17:27:42.649Z,1.40
2022-12-08T17:30:15.009Z,1.40
2022-12-08T17:32:43.229Z,1.40
2022-12-08T17:35:11.121Z,1.40
2022-12-08T17:37:38.269Z,1.40
2022-12-08T17:40:06.359Z,1.40
2022-12-08T17:42:33.663Z,1.40
2022-12-08T17:45:00.825Z,1.40
2022-12-08T17:47:27.905Z,1.40
2022-12-08T17:49:56.204Z,1.40
2022-12-08T17:52:23.474Z,1.40
2022-12-08T17:54:50.489Z,1.40
2022-12-08T17:57:17.471Z,1.30
2022-12-08T17:59:44.538Z,1.30
2022-12-08T18:02:15.248Z,1.30
2022-12-08T18:04:42.418Z,1.20
2022-12-08T18:07:09.458Z,1.20
2022-12-08T18:09:36.639Z,1.10
2022-12-08T18:12:03.818Z,1.10
2022-12-08T18:14:30.985Z,1.00
2022-12-08T18:16:58.184Z,1.00
2022-12-08T18:19:26.343Z,1.00
2022-12-08T18:21:53.280Z,1.00
2022-12-08T18:24:23.353Z,1.10
2022-12-08T18:26:52.588Z,1.20
2022-12-08T18:29:21.289Z,1.20
2022-12-08T18:31:48.362Z,1.20
2022-12-08T18:34:15.590Z,1.30
2022-12-08T18:36:42.839Z,1.30
2022-12-08T18:39:20.374Z,1.30
2022-12-08T18:41:47.339Z,1.30
2022-12-08T18:44:14.325Z,1.30
2022-12-08T18:46:41.352Z,1.30
2022-12-08T18:49:12.642Z,1.20
2022-12-08T18:51:39.835Z,1.20
2022-12-08T18:54:06.969Z,1.20
2022-12-08T18:56:35.380Z,1.20
2022-12-08T18:59:08.643Z,1.20
2022-12-08T19:01:38.156Z,1.30
2022-12-08T19:06:56.244Z,1.30
2022-12-08T19:09:24.598Z,1.30
2022-12-08T19:11:51.631Z,1.20
2022-12-08T19:14:22.688Z,1.20
2022-12-08T19:16:54.488Z,1.20
2022-12-08T19:19:21.856Z,1.10
2022-12-08T19:21:48.881Z,1.10
2022-12-08T19:24:16.108Z,1.00
2022-12-08T19:26:43.346Z,1.10
2022-12-08T19:29:11.439Z,1.00
2022-12-08T19:31:39.080Z,1.00
2022-12-08T19:34:06.761Z,0.90
2022-12-08T19:36:35.708Z,0.90
2022-12-08T19:39:23.121Z,0.90
2022-12-08T19:42:09.151Z,0.90
2022-12-08T19:44:54.160Z,0.80
2022-12-08T19:47:26.112Z,0.80
2022-12-08T19:49:55.189Z,0.80
2022-12-08T19:52:22.442Z,0.80
2022-12-08T19:54:49.519Z,0.80
2022-12-08T19:57:16.446Z,0.80
2022-12-08T19:59:43.491Z,0.80
2022-12-08T20:02:11.582Z,0.80
2022-12-08T20:04:38.728Z,0.80
2022-12-08T20:07:05.697Z,0.90
2022-12-08T20:09:32.718Z,0.90
2022-12-08T20:11:59.632Z,0.90
2022-12-08T20:14:26.637Z,0.80
2022-12-08T20:16:53.768Z,0.90
2022-12-08T20:19:21.435Z,0.90
2022-12-08T20:21:48.958Z,0.90
2022-12-08T20:24:17.285Z,0.90
2022-12-08T20:26:44.263Z,0.90
2022-12-08T20:29:11.914Z,0.90
2022-12-08T20:31:38.859Z,0.90
2022-12-08T20:34:06.036Z,0.90
2022-12-08T20:36:33.212Z,0.80
2022-12-08T20:39:00.367Z,0.80
2022-12-08T20:41:27.416Z,0.80
2022-12-08T20:43:54.573Z,0.80
2022-12-08T20:46:21.984Z,0.80
2022-12-08T20:48:49.451Z,0.90
2022-12-08T20:51:19.481Z,0.90
2022-12-08T20:53:47.456Z,0.90
2022-12-08T20:56:20.255Z,0.90
2022-12-08T20:58:47.935Z,0.90
2022-12-08T21:01:19.655Z,0.90
2022-12-08T21:03:48.139Z,0.90
2022-12-08T21:06:16.340Z,0.80
2022-12-08T21:08:44.369Z,0.90
2022-12-08T21:11:11.991Z,0.90
2022-12-08T21:13:39.425Z,0.80
2022-12-08T21:16:09.312Z,0.90
2022-12-08T21:18:40.016Z,0.80
2022-12-08T21:21:14.303Z,0.80
2022-12-08T21:23:45.100Z,0.70
2022-12-08T21:26:21.153Z,0.80
2022-12-08T21:28:48.271Z,0.70
2022-12-08T21:31:18.391Z,0.70
2022-12-08T21:33:45.772Z,0.70
2022-12-08T21:36:15.563Z,0.70
2022-12-08T21:38:43.350Z,0.70
2022-12-08T21:41:37.637Z,0.70
2022-12-08T21:44:06.314Z,0.70
2022-12-08T21:46:33.703Z,0.80
2022-12-08T21:49:00.917Z,0.70
2022-12-08T21:51:28.130Z,0.70
2022-12-08T21:53:55.083Z,0.70
2022-12-08T21:56:22.717Z,0.60
2022-12-08T21:58:49.862Z,0.60
2022-12-08T22:01:17.051Z,0.60
2022-12-08T22:03:44.213Z,0.60
2022-12-08T22:06:13.862Z,0.60
2022-12-08T22:08:42.832Z,0.70
2022-12-08T22:11:11.747Z,0.70
2022-12-08T22:13:41.272Z,0.60
2022-12-08T22:16:12.088Z,0.60
2022-12-08T22:18:39.334Z,0.60
2022-12-08T22:21:24.587Z,0.70
2022-12-08T22:23:51.960Z,0.70
2022-12-08T22:26:19.350Z,0.60
2022-12-08T22:28:46.519Z,0.60
2022-12-08T22:31:21.149Z,0.50
2022-12-08T22:33:49.620Z,0.50
2022-12-08T22:36:19.763Z,0.50
2022-12-08T22:38:47.865Z,0.50
2022-12-08T22:41:16.047Z,0.50
2022-12-08T22:43:43.876Z,0.50
2022-12-08T22:46:15.617Z,0.50
2022-12-08T22:48:42.871Z,0.40
2022-12-08T22:51:11.319Z,0.50
2022-12-08T22:53:38.876Z,0.40
2022-12-08T22:56:07.475Z,0.50
2022-12-08T22:58:35.069Z,0.40
2022-12-08T23:01:02.692Z,0.40
2022-12-08T23:03:30.253Z,0.30
2022-12-08T23:05:57.564Z,0.30
2022-12-08T23:08:24.859Z,0.30
2022-12-08T23:10:53.919Z,0.30
2022-12-08T23:13:22.023Z,0.30
2022-12-08T23:15:49.647Z,0.20
2022-12-08T23:18:19.348Z,0.20
2022-12-08T23:20:47.712Z,0.10
2022-12-08T23:23:16.535Z,0.10
2022-12-08T23:25:44.377Z,0.00
2022-12-08T23:28:11.756Z,0.00
2022-12-08T23:30:42.658Z,-0.10
2022-12-08T23:33:09.875Z,-0.20
2022-12-08T23:35:36.955Z,-0.30
2022-12-08T23:38:04.777Z,-0.40
2022-12-08T23:40:31.970Z,-0.50
2022-12-08T23:42:59.160Z,-0.60
2022-12-08T23:45:26.408Z,-0.60
2022-12-08T23:47:53.679Z,-0.70
2022-12-08T23:50:20.661Z,-0.80
2022-12-08T23:52:47.768Z,-0.90
2022-12-08T23:55:14.725Z,-0.90
2022-12-08T23:57:41.966Z,-1.00
